sensor_id;sensor_type;location;lat;lon;timestamp;pressure;altitude;pressure_sealevel;temperature;humidity
64602;BME280;68371;42.630;23.192;2023-05-29T00:02:19;92153.88;;;13.34;100.00
64602;BME280;68371;42.630;23.192;2023-05-29T00:04:46;92153.28;;;13.21;100.00
64602;BME280;68371;42.630;23.192;2023-05-29T00:07:13;92168.75;;;13.23;100.00
64602;BME280;68371;42.630;23.192;2023-05-29T00:09:39;92162.31;;;13.20;100.00
64602;BME280;68371;42.630;23.192;2023-05-29T00:12:07;92163.78;;;13.18;100.00
64602;BME280;68371;42.630;23.192;2023-05-29T00:14:34;92167.13;;;13.15;100.00
64602;BME280;68371;42.630;23.192;2023-05-29T00:17:01;92163.78;;;13.18;100.00
64602;BME280;68371;42.630;23.192;2023-05-29T00:19:28;92161.19;;;13.21;100.00
64602;BME280;68371;42.630;23.192;2023-05-29T00:21:56;92162.13;;;13.06;100.00
64602;BME280;68371;42.630;23.192;2023-05-29T00:24:23;92164.97;;;12.94;100.00
64602;BME280;68371;42.630;23.192;2023-05-29T00:26:49;92166.59;;;13.02;100.00
64602;BME280;68371;42.630;23.192;2023-05-29T00:29:18;92166.94;;;13.00;100.00
64602;BME280;68371;42.630;23.192;2023-05-29T00:31:46;92165.84;;;13.05;100.00
64602;BME280;68371;42.630;23.192;2023-05-29T00:34:13;92165.06;;;13.01;100.00
64602;BME280;68371;42.630;23.192;2023-05-29T00:36:39;92160.50;;;12.98;100.00
64602;BME280;68371;42.630;23.192;2023-05-29T00:39:06;92164.91;;;12.90;100.00
64602;BME280;68371;42.630;23.192;2023-05-29T00:41:34;92165.72;;;12.94;100.00
64602;BME280;68371;42.630;23.192;2023-05-29T00:44:04;92168.69;;;12.93;100.00
64602;BME280;68371;42.630;23.192;2023-05-29T00:46:34;92158.81;;;12.86;100.00
64602;BME280;68371;42.630;23.192;2023-05-29T00:49:04;92167.94;;;12.92;100.00
64602;BME280;68371;42.630;23.192;2023-05-29T00:51:33;92163.06;;;12.94;100.00
64602;BME280;68371;42.630;23.192;2023-05-29T00:54:00;92161.53;;;12.93;100.00
64602;BME280;68371;42.630;23.192;2023-05-29T00:56:28;92160.09;;;12.96;100.00
64602;BME280;68371;42.630;23.192;2023-05-29T00:58:55;92156.31;;;12.97;100.00
64602;BME280;68371;42.630;23.192;2023-05-29T01:01:21;92151.31;;;12.88;100.00
64602;BME280;68371;42.630;23.192;2023-05-29T01:03:51;92156.31;;;12.97;100.00
64602;BME280;68371;42.630;23.192;2023-05-29T01:06:20;92149.56;;;12.99;100.00
64602;BME280;68371;42.630;23.192;2023-05-29T01:08:48;92155.63;;;13.00;100.00
64602;BME280;68371;42.630;23.192;2023-05-29T01:11:22;92142.44;;;13.00;100.00
64602;BME280;68371;42.630;23.192;2023-05-29T01:13:53;92140.09;;;12.95;100.00
64602;BME280;68371;42.630;23.192;2023-05-29T01:16:26;92143.50;;;12.95;100.00
64602;BME280;68371;42.630;23.192;2023-05-29T01:19:09;92142.75;;;12.95;100.00
64602;BME280;68371;42.630;23.192;2023-05-29T01:21:45;92145.28;;;12.88;100.00
64602;BME280;68371;42.630;23.192;2023-05-29T01:24:25;92152.06;;;12.89;100.00
64602;BME280;68371;42.630;23.192;2023-05-29T01:26:55;92100.38;;;12.54;100.00
64602;BME280;68371;42.630;23.192;2023-05-29T01:29:26;92151.59;;;12.83;100.00
64602;BME280;68371;42.630;23.192;2023-05-29T01:31:57;92144.00;;;12.78;100.00
64602;BME280;68371;42.630;23.192;2023-05-29T01:34:24;92156.84;;;12.79;100.00
64602;BME280;68371;42.630;23.192;2023-05-29T01:36:51;92155.66;;;12.77;100.00
64602;BME280;68371;42.630;23.192;2023-05-29T01:39:18;92157.53;;;12.76;100.00
64602;BME280;68371;42.630;23.192;2023-05-29T01:41:46;92154.03;;;12.69;100.00
64602;BME280;68371;42.630;23.192;2023-05-29T01:44:15;92154.84;;;12.73;100.00
64602;BME280;68371;42.630;23.192;2023-05-29T01:46:43;92152.13;;;12.66;100.00
64602;BME280;68371;42.630;23.192;2023-05-29T01:49:11;92153.28;;;12.68;100.00
64602;BME280;68371;42.630;23.192;2023-05-29T01:51:38;92157.38;;;12.66;100.00
64602;BME280;68371;42.630;23.192;2023-05-29T01:54:05;92155.16;;;12.68;100.00
64602;BME280;68371;42.630;23.192;2023-05-29T01:56:32;92152.13;;;12.66;100.00
64602;BME280;68371;42.630;23.192;2023-05-29T01:59:02;92146.06;;;12.65;100.00
64602;BME280;68371;42.630;23.192;2023-05-29T02:01:35;92140.03;;;12.65;100.00
64602;BME280;68371;42.630;23.192;2023-05-29T02:04:04;92107.03;;;12.48;100.00
64602;BME280;68371;42.630;23.192;2023-05-29T02:06:31;92133.44;;;12.51;100.00
64602;BME280;68371;42.630;23.192;2023-05-29T02:09:00;92138.53;;;12.63;100.00
64602;BME280;68371;42.630;23.192;2023-05-29T02:11:28;92110.56;;;12.32;100.00
64602;BME280;68371;42.630;23.192;2023-05-29T02:13:54;92137.59;;;12.52;100.00
64602;BME280;68371;42.630;23.192;2023-05-29T02:16:21;92128.47;;;12.46;100.00
64602;BME280;68371;42.630;23.192;2023-05-29T02:18:49;92128.00;;;12.40;100.00
64602;BME280;68371;42.630;23.192;2023-05-29T02:21:17;92126.50;;;12.39;100.00
64602;BME280;68371;42.630;23.192;2023-05-29T02:23:43;92136.72;;;12.45;100.00
64602;BME280;68371;42.630;23.192;2023-05-29T02:26:12;92112.28;;;12.21;100.00
64602;BME280;68371;42.630;23.192;2023-05-29T02:28:39;92138.59;;;12.44;100.00
64602;BME280;68371;42.630;23.192;2023-05-29T02:31:05;92138.31;;;12.26;100.00
64602;BME280;68371;42.630;23.192;2023-05-29T02:33:32;92139.19;;;12.34;100.00
64602;BME280;68371;42.630;23.192;2023-05-29T02:36:02;92139.84;;;12.27;100.00
64602;BME280;68371;42.630;23.192;2023-05-29T02:38:29;92137.41;;;12.18;100.00
64602;BME280;68371;42.630;23.192;2023-05-29T02:40:56;92139.84;;;12.27;100.00
64602;BME280;68371;42.630;23.192;2023-05-29T02:43:23;92145.84;;;12.28;100.00
64602;BME280;68371;42.630;23.192;2023-05-29T02:45:50;92134.91;;;12.26;100.00
64602;BME280;68371;42.630;23.192;2023-05-29T02:48:16;92138.03;;;12.31;100.00
64602;BME280;68371;42.630;23.192;2023-05-29T02:50:43;92140.66;;;12.31;100.00
64602;BME280;68371;42.630;23.192;2023-05-29T02:53:11;92127.84;;;12.30;100.00
64602;BME280;68371;42.630;23.192;2023-05-29T02:55:38;92145.22;;;12.34;100.00
64602;BME280;68371;42.630;23.192;2023-05-29T02:58:05;92125.03;;;12.19;100.00
64602;BME280;68371;42.630;23.192;2023-05-29T03:00:33;92128.75;;;12.18;100.00
64602;BME280;68371;42.630;23.192;2023-05-29T03:03:00;92136.06;;;12.28;100.00
64602;BME280;68371;42.630;23.192;2023-05-29T03:05:28;92135.44;;;12.12;100.00
64602;BME280;68371;42.630;23.192;2023-05-29T03:07:55;92135.50;;;12.15;100.00
64602;BME280;68371;42.630;23.192;2023-05-29T03:10:23;92135.16;;;12.17;100.00
64602;BME280;68371;42.630;23.192;2023-05-29T03:12:50;92137.81;;;12.20;100.00
64602;BME280;68371;42.630;23.192;2023-05-29T03:15:17;92139.94;;;12.11;100.00
64602;BME280;68371;42.630;23.192;2023-05-29T03:17:45;92145.28;;;12.15;100.00
64602;BME280;68371;42.630;23.192;2023-05-29T03:20:12;92138.88;;;12.16;100.00
64602;BME280;68371;42.630;23.192;2023-05-29T03:22:41;92147.94;;;12.18;100.00
64602;BME280;68371;42.630;23.192;2023-05-29T03:25:08;92148.44;;;12.24;100.00
64602;BME280;68371;42.630;23.192;2023-05-29T03:27:39;92149.63;;;12.27;100.00
64602;BME280;68371;42.630;23.192;2023-05-29T03:30:09;92146.34;;;12.33;100.00
64602;BME280;68371;42.630;23.192;2023-05-29T03:32:39;92143.69;;;12.33;100.00
64602;BME280;68371;42.630;23.192;2023-05-29T03:35:08;92139.50;;;12.29;100.00
64602;BME280;68371;42.630;23.192;2023-05-29T03:37:37;92148.63;;;12.35;100.00
64602;BME280;68371;42.630;23.192;2023-05-29T03:40:05;91994.00;;;11.43;100.00
64602;BME280;68371;42.630;23.192;2023-05-29T03:42:33;92146.16;;;12.46;100.00
64602;BME280;68371;42.630;23.192;2023-05-29T03:45:02;92154.81;;;12.46;100.00
64602;BME280;68371;42.630;23.192;2023-05-29T03:47:28;92158.59;;;12.49;100.00
64602;BME280;68371;42.630;23.192;2023-05-29T03:49:55;92163.13;;;12.48;100.00
64602;BME280;68371;42.630;23.192;2023-05-29T03:52:22;92163.53;;;12.50;100.00
64602;BME280;68371;42.630;23.192;2023-05-29T03:54:49;92159.97;;;12.62;100.00
64602;BME280;68371;42.630;23.192;2023-05-29T03:57:15;92166.56;;;12.52;100.00
64602;BME280;68371;42.630;23.192;2023-05-29T03:59:42;92166.75;;;12.63;100.00
64602;BME280;68371;42.630;23.192;2023-05-29T04:02:10;92169.03;;;12.65;100.00
64602;BME280;68371;42.630;23.192;2023-05-29T04:04:38;92163.41;;;12.66;100.00
64602;BME280;68371;42.630;23.192;2023-05-29T04:07:06;92175.13;;;12.69;100.00
64602;BME280;68371;42.630;23.192;2023-05-29T04:09:36;92163.25;;;12.55;100.00
64602;BME280;68371;42.630;23.192;2023-05-29T04:12:05;92184.03;;;12.60;100.00
64602;BME280;68371;42.630;23.192;2023-05-29T04:14:34;92180.63;;;12.60;100.00
64602;BME280;68371;42.630;23.192;2023-05-29T04:17:01;92180.97;;;12.58;100.00
64602;BME280;68371;42.630;23.192;2023-05-29T04:19:29;92178.47;;;12.66;100.00
64602;BME280;68371;42.630;23.192;2023-05-29T04:21:55;92173.25;;;12.69;100.00
64602;BME280;68371;42.630;23.192;2023-05-29T04:24:22;92191.88;;;12.80;100.00
64602;BME280;68371;42.630;23.192;2023-05-29T04:26:49;92177.97;;;12.83;100.00
64602;BME280;68371;42.630;23.192;2023-05-29T04:29:16;92184.84;;;12.88;100.00
64602;BME280;68371;42.630;23.192;2023-05-29T04:31:43;92174.22;;;12.84;100.00
64602;BME280;68371;42.630;23.192;2023-05-29T04:34:10;92166.19;;;12.77;100.00
64602;BME280;68371;42.630;23.192;2023-05-29T04:36:41;92175.84;;;12.92;100.00
64602;BME280;68371;42.630;23.192;2023-05-29T04:39:10;92182.59;;;12.90;100.00
64602;BME280;68371;42.630;23.192;2023-05-29T04:41:37;92184.56;;;12.96;100.00
64602;BME280;68371;42.630;23.192;2023-05-29T04:44:06;92171.34;;;12.93;100.00
64602;BME280;68371;42.630;23.192;2023-05-29T04:46:36;92180.66;;;12.87;100.00
64602;BME280;68371;42.630;23.192;2023-05-29T04:49:03;92199.44;;;13.08;100.00
64602;BME280;68371;42.630;23.192;2023-05-29T04:51:30;92202.94;;;13.16;100.00
64602;BME280;68371;42.630;23.192;2023-05-29T04:53:58;92179.03;;;13.05;100.00
64602;BME280;68371;42.630;23.192;2023-05-29T04:56:25;92202.75;;;13.28;100.00
64602;BME280;68371;42.630;23.192;2023-05-29T04:58:52;92191.38;;;13.24;100.00
64602;BME280;68371;42.630;23.192;2023-05-29T05:01:18;92222.47;;;13.38;100.00
64602;BME280;68371;42.630;23.192;2023-05-29T05:03:45;92206.47;;;13.27;100.00
64602;BME280;68371;42.630;23.192;2023-05-29T05:06:12;92226.31;;;13.40;100.00
64602;BME280;68371;42.630;23.192;2023-05-29T05:08:42;92239.22;;;13.49;100.00
64602;BME280;68371;42.630;23.192;2023-05-29T05:11:15;92235.88;;;13.52;100.00
64602;BME280;68371;42.630;23.192;2023-05-29T05:13:42;92238.88;;;13.51;100.00
64602;BME280;68371;42.630;23.192;2023-05-29T05:16:09;92249.53;;;13.58;100.00
64602;BME280;68371;42.630;23.192;2023-05-29T05:18:38;92245.03;;;13.62;100.00
64602;BME280;68371;42.630;23.192;2023-05-29T05:21:05;92245.56;;;13.71;100.00
64602;BME280;68371;42.630;23.192;2023-05-29T05:23:32;92255.03;;;13.76;100.00
64602;BME280;68371;42.630;23.192;2023-05-29T05:25:58;92255.44;;;13.78;100.00
64602;BME280;68371;42.630;23.192;2023-05-29T05:28:27;92252.09;;;13.81;100.00
64602;BME280;68371;42.630;23.192;2023-05-29T05:30:53;92261.63;;;13.89;100.00
64602;BME280;68371;42.630;23.192;2023-05-29T05:33:20;92250.78;;;13.98;100.00
64602;BME280;68371;42.630;23.192;2023-05-29T05:35:47;92242.47;;;13.96;100.00
64602;BME280;68371;42.630;23.192;2023-05-29T05:38:14;92249.78;;;14.10;100.00
64602;BME280;68371;42.630;23.192;2023-05-29T05:40:40;92248.41;;;14.23;100.00
64602;BME280;68371;42.630;23.192;2023-05-29T05:43:10;92222.34;;;14.18;100.00
64602;BME280;68371;42.630;23.192;2023-05-29T05:45:38;92251.66;;;14.43;100.00
64602;BME280;68371;42.630;23.192;2023-05-29T05:48:07;92249.81;;;14.47;100.00
64602;BME280;68371;42.630;23.192;2023-05-29T05:50:34;92234.75;;;14.51;100.00
64602;BME280;68371;42.630;23.192;2023-05-29T05:53:00;92257.66;;;14.74;100.00
64602;BME280;68371;42.630;23.192;2023-05-29T05:55:27;92252.03;;;14.79;100.00
64602;BME280;68371;42.630;23.192;2023-05-29T05:57:54;92250.31;;;14.97;100.00
64602;BME280;68371;42.630;23.192;2023-05-29T06:00:22;92247.66;;;14.97;100.00
64602;BME280;68371;42.630;23.192;2023-05-29T06:02:50;92258.34;;;15.12;100.00
64602;BME280;68371;42.630;23.192;2023-05-29T06:05:17;92255.00;;;15.18;100.00
64602;BME280;68371;42.630;23.192;2023-05-29T06:07:47;92254.63;;;15.20;100.00
64602;BME280;68371;42.630;23.192;2023-05-29T06:10:15;92249.00;;;15.29;100.00
64602;BME280;68371;42.630;23.192;2023-05-29T06:12:42;92252.44;;;15.29;100.00
64602;BME280;68371;42.630;23.192;2023-05-29T06:15:09;92258.09;;;15.28;100.00
64602;BME280;68371;42.630;23.192;2023-05-29T06:17:36;92258.88;;;15.32;100.00
64602;BME280;68371;42.630;23.192;2023-05-29T06:20:05;92263.88;;;15.44;100.00
64602;BME280;68371;42.630;23.192;2023-05-29T06:22:34;92264.25;;;15.39;100.00
64602;BME280;68371;42.630;23.192;2023-05-29T06:25:01;92264.56;;;15.34;100.00
64602;BME280;68371;42.630;23.192;2023-05-29T06:27:28;92263.72;;;15.19;100.00
64602;BME280;68371;42.630;23.192;2023-05-29T06:29:55;92263.34;;;15.24;100.00
64602;BME280;68371;42.630;23.192;2023-05-29T06:32:22;92265.69;;;15.29;100.00
64602;BME280;68371;42.630;23.192;2023-05-29T06:34:48;92259.69;;;15.39;100.00
64602;BME280;68371;42.630;23.192;2023-05-29T06:37:17;92266.88;;;15.39;100.00
64602;BME280;68371;42.630;23.192;2023-05-29T06:39:44;92264.63;;;15.45;100.00
64602;BME280;68371;42.630;23.192;2023-05-29T06:42:12;92266.19;;;15.53;100.00
64602;BME280;68371;42.630;23.192;2023-05-29T06:44:39;92274.53;;;15.51;100.00
64602;BME280;68371;42.630;23.192;2023-05-29T06:47:06;92268.16;;;15.59;100.00
64602;BME280;68371;42.630;23.192;2023-05-29T06:49:33;92277.19;;;15.55;100.00
64602;BME280;68371;42.630;23.192;2023-05-29T06:51:59;92269.63;;;15.57;100.00
64602;BME280;68371;42.630;23.192;2023-05-29T06:54:27;92248.03;;;15.48;100.00
64602;BME280;68371;42.630;23.192;2023-05-29T06:56:54;92273.44;;;15.63;100.00
64602;BME280;68371;42.630;23.192;2023-05-29T06:59:22;92274.13;;;15.49;100.00
64602;BME280;68371;42.630;23.192;2023-05-29T07:01:48;92273.25;;;15.34;100.00
64602;BME280;68371;42.630;23.192;2023-05-29T07:04:15;92276.75;;;15.46;100.00
64602;BME280;68371;42.630;23.192;2023-05-29T07:06:44;92274.13;;;15.53;100.00
64602;BME280;68371;42.630;23.192;2023-05-29T07:09:10;92265.44;;;15.52;100.00
64602;BME280;68371;42.630;23.192;2023-05-29T07:11:39;92282.16;;;15.67;100.00
64602;BME280;68371;42.630;23.192;2023-05-29T07:14:06;92286.00;;;15.70;100.00
64602;BME280;68371;42.630;23.192;2023-05-29T07:16:32;92287.59;;;15.81;100.00
64602;BME280;68371;42.630;23.192;2023-05-29T07:18:59;92270.97;;;15.88;100.00
64602;BME280;68371;42.630;23.192;2023-05-29T07:21:27;92277.84;;;16.03;100.00
64602;BME280;68371;42.630;23.192;2023-05-29T07:23:53;92282.69;;;15.84;100.00
64602;BME280;68371;42.630;23.192;2023-05-29T07:26:20;92282.72;;;15.91;100.00
64602;BME280;68371;42.630;23.192;2023-05-29T07:28:51;92277.81;;;15.93;100.00
64602;BME280;68371;42.630;23.192;2023-05-29T07:31:17;92288.47;;;16.00;100.00
64602;BME280;68371;42.630;23.192;2023-05-29T07:33:46;92283.53;;;15.98;100.00
64602;BME280;68371;42.630;23.192;2023-05-29T07:36:15;92249.44;;;15.90;100.00
64602;BME280;68371;42.630;23.192;2023-05-29T07:38:42;92278.69;;;16.15;100.00
64602;BME280;68371;42.630;23.192;2023-05-29T07:41:10;92275.63;;;16.09;100.00
64602;BME280;68371;42.630;23.192;2023-05-29T07:43:37;92273.06;;;16.31;100.00
64602;BME280;68371;42.630;23.192;2023-05-29T07:46:05;92266.66;;;16.39;100.00
64602;BME280;68371;42.630;23.192;2023-05-29T07:48:31;92274.22;;;16.44;100.00
64602;BME280;68371;42.630;23.192;2023-05-29T07:50:58;92273.50;;;16.47;100.00
64602;BME280;68371;42.630;23.192;2023-05-29T07:53:25;92265.94;;;16.53;100.00
64602;BME280;68371;42.630;23.192;2023-05-29T07:55:52;92275.41;;;16.57;100.00
64602;BME280;68371;42.630;23.192;2023-05-29T07:58:21;92259.09;;;16.41;100.00
64602;BME280;68371;42.630;23.192;2023-05-29T08:00:48;92271.63;;;16.55;100.00
64602;BME280;68371;42.630;23.192;2023-05-29T08:03:18;92270.47;;;16.52;100.00
64602;BME280;68371;42.630;23.192;2023-05-29T08:05:46;92277.66;;;16.48;100.00
64602;BME280;68371;42.630;23.192;2023-05-29T08:08:13;92276.16;;;16.51;100.00
64602;BME280;68371;42.630;23.192;2023-05-29T08:10:40;92279.19;;;16.56;100.00
64602;BME280;68371;42.630;23.192;2023-05-29T08:13:07;92282.25;;;16.66;100.00
64602;BME280;68371;42.630;23.192;2023-05-29T08:15:34;92280.38;;;16.73;100.00
64602;BME280;68371;42.630;23.192;2023-05-29T08:18:00;92281.56;;;16.83;100.00
64602;BME280;68371;42.630;23.192;2023-05-29T08:20:28;92278.53;;;16.92;100.00
64602;BME280;68371;42.630;23.192;2023-05-29T08:22:56;92280.81;;;16.86;100.00
64602;BME280;68371;42.630;23.192;2023-05-29T08:25:23;92280.81;;;16.93;100.00
64602;BME280;68371;42.630;23.192;2023-05-29T08:27:49;92274.75;;;16.96;100.00
64602;BME280;68371;42.630;23.192;2023-05-29T08:30:18;92281.94;;;17.03;100.00
64602;BME280;68371;42.630;23.192;2023-05-29T08:32:45;92272.84;;;16.97;100.00
64602;BME280;68371;42.630;23.192;2023-05-29T08:35:12;92290.69;;;17.04;100.00
64602;BME280;68371;42.630;23.192;2023-05-29T08:37:41;92281.59;;;17.15;100.00
64602;BME280;68371;42.630;23.192;2023-05-29T08:40:08;92288.78;;;17.15;100.00
64602;BME280;68371;42.630;23.192;2023-05-29T08:42:41;92288.78;;;17.29;100.00
64602;BME280;68371;42.630;23.192;2023-05-29T08:45:13;92285.00;;;17.23;100.00
64602;BME280;68371;42.630;23.192;2023-05-29T08:47:41;92210.31;;;16.81;100.00
64602;BME280;68371;42.630;23.192;2023-05-29T08:50:09;92282.75;;;17.32;100.00
64602;BME280;68371;42.630;23.192;2023-05-29T08:52:37;92281.22;;;17.38;100.00
64602;BME280;68371;42.630;23.192;2023-05-29T08:55:07;92260.34;;;17.55;100.00
64602;BME280;68371;42.630;23.192;2023-05-29T08:57:36;92274.00;;;17.64;100.00
64602;BME280;68371;42.630;23.192;2023-05-29T09:00:05;92277.78;;;17.59;100.00
64602;BME280;68371;42.630;23.192;2023-05-29T09:02:37;92277.03;;;17.62;100.00
64602;BME280;68371;42.630;23.192;2023-05-29T09:05:04;92270.94;;;17.76;100.00
64602;BME280;68371;42.630;23.192;2023-05-29T09:07:31;92265.63;;;17.94;100.00
64602;BME280;68371;42.630;23.192;2023-05-29T09:09:59;92263.31;;;18.04;100.00
64602;BME280;68371;42.630;23.192;2023-05-29T09:12:27;92243.94;;;18.07;100.00
64602;BME280;68371;42.630;23.192;2023-05-29T09:14:57;92260.16;;;18.37;100.00
64602;BME280;68371;42.630;23.192;2023-05-29T09:17:23;92264.31;;;18.38;98.21
64602;BME280;68371;42.630;23.192;2023-05-29T09:19:52;92258.59;;;18.44;100.00
64602;BME280;68371;42.630;23.192;2023-05-29T09:22:19;92255.22;;;18.32;97.90
64602;BME280;68371;42.630;23.192;2023-05-29T09:24:47;92265.81;;;18.43;98.12
64602;BME280;68371;42.630;23.192;2023-05-29T09:27:15;92263.84;;;18.54;100.00
64602;BME280;68371;42.630;23.192;2023-05-29T09:29:44;92251.38;;;18.37;98.30
64602;BME280;68371;42.630;23.192;2023-05-29T09:32:15;92230.50;;;18.39;97.56
64602;BME280;68371;42.630;23.192;2023-05-29T09:34:42;92241.03;;;18.57;100.00
64602;BME280;68371;42.630;23.192;2023-05-29T09:37:10;92240.56;;;18.73;100.00
64602;BME280;68371;42.630;23.192;2023-05-29T09:39:47;92239.72;;;18.94;98.23
64602;BME280;68371;42.630;23.192;2023-05-29T09:42:14;92239.75;;;18.87;93.28
64602;BME280;68371;42.630;23.192;2023-05-29T09:44:44;92237.88;;;18.84;91.95
64602;BME280;68371;42.630;23.192;2023-05-29T09:47:14;92226.84;;;18.81;91.32
64602;BME280;68371;42.630;23.192;2023-05-29T09:49:42;92218.44;;;18.90;99.10
64602;BME280;68371;42.630;23.192;2023-05-29T09:52:10;92225.09;;;19.16;92.50
64602;BME280;68371;42.630;23.192;2023-05-29T09:54:41;92226.91;;;19.27;99.54
64602;BME280;68371;42.630;23.192;2023-05-29T09:57:10;92222.09;;;19.52;95.83
64602;BME280;68371;42.630;23.192;2023-05-29T09:59:39;92216.78;;;19.52;85.66
64602;BME280;68371;42.630;23.192;2023-05-29T10:02:11;92226.53;;;19.70;82.31
64602;BME280;68371;42.630;23.192;2023-05-29T10:04:39;92210.56;;;19.66;81.83
64602;BME280;68371;42.630;23.192;2023-05-29T10:07:08;92225.13;;;19.96;84.34
64602;BME280;68371;42.630;23.192;2023-05-29T10:09:41;92203.28;;;19.74;77.17
64602;BME280;68371;42.630;23.192;2023-05-29T10:12:11;92225.97;;;19.89;79.45
64602;BME280;68371;42.630;23.192;2023-05-29T10:14:39;92223.94;;;20.00;81.00
64602;BME280;68371;42.630;23.192;2023-05-29T10:17:13;92222.50;;;20.27;80.16
64602;BME280;68371;42.630;23.192;2023-05-29T10:19:41;92226.44;;;20.15;70.97
64602;BME280;68371;42.630;23.192;2023-05-29T10:22:10;92226.06;;;20.13;71.14
64602;BME280;68371;42.630;23.192;2023-05-29T10:24:37;92226.19;;;20.06;76.93
64602;BME280;68371;42.630;23.192;2023-05-29T10:27:04;92222.88;;;19.94;77.45
64602;BME280;68371;42.630;23.192;2023-05-29T10:29:36;92214.44;;;19.99;74.99
64602;BME280;68371;42.630;23.192;2023-05-29T10:32:12;92216.59;;;20.12;74.98
64602;BME280;68371;42.630;23.192;2023-05-29T10:34:50;92211.59;;;20.14;76.22
64602;BME280;68371;42.630;23.192;2023-05-29T10:37:32;92213.97;;;20.05;75.10
64602;BME280;68371;42.630;23.192;2023-05-29T10:40:04;92215.53;;;20.02;74.37
64602;BME280;68371;42.630;23.192;2023-05-29T10:42:45;92223.88;;;20.08;77.10
64602;BME280;68371;42.630;23.192;2023-05-29T10:48:38;92195.78;;;19.99;75.56
64602;BME280;68371;42.630;23.192;2023-05-29T10:51:06;92197.06;;;20.18;77.01
64602;BME280;68371;42.630;23.192;2023-05-29T10:53:33;92192.09;;;20.48;81.49
64602;BME280;68371;42.630;23.192;2023-05-29T10:56:08;92189.28;;;20.89;76.68
64602;BME280;68371;42.630;23.192;2023-05-29T10:58:36;92185.41;;;21.17;71.75
64602;BME280;68371;42.630;23.192;2023-05-29T11:01:02;92185.56;;;21.30;68.49
64602;BME280;68371;42.630;23.192;2023-05-29T11:03:31;92176.38;;;21.55;69.74
64602;BME280;68371;42.630;23.192;2023-05-29T11:06:02;92175.88;;;21.64;66.46
64602;BME280;68371;42.630;23.192;2023-05-29T11:08:32;92181.00;;;21.74;64.69
64602;BME280;68371;42.630;23.192;2023-05-29T11:10:59;92180.66;;;21.72;62.55
64602;BME280;68371;42.630;23.192;2023-05-29T11:13:33;92177.78;;;22.03;69.15
64602;BME280;68371;42.630;23.192;2023-05-29T11:16:19;92166.00;;;22.40;62.08
64602;BME280;68371;42.630;23.192;2023-05-29T11:18:47;92162.69;;;22.69;63.33
64602;BME280;68371;42.630;23.192;2023-05-29T11:21:33;92166.53;;;22.32;53.88
64602;BME280;68371;42.630;23.192;2023-05-29T11:24:01;92153.31;;;22.05;58.53
64602;BME280;68371;42.630;23.192;2023-05-29T11:26:30;92172.78;;;21.65;61.32
64602;BME280;68371;42.630;23.192;2023-05-29T11:28:59;92172.69;;;21.49;67.18
64602;BME280;68371;42.630;23.192;2023-05-29T11:31:27;92168.19;;;21.42;73.21
64602;BME280;68371;42.630;23.192;2023-05-29T11:33:59;92176.03;;;21.53;76.28
64602;BME280;68371;42.630;23.192;2023-05-29T11:36:26;92168.03;;;21.29;75.95
64602;BME280;68371;42.630;23.192;2023-05-29T11:38:56;92176.22;;;21.18;76.55
64602;BME280;68371;42.630;23.192;2023-05-29T11:41:22;92177.78;;;21.16;77.13
64602;BME280;68371;42.630;23.192;2023-05-29T11:43:56;92173.97;;;20.93;71.99
64602;BME280;68371;42.630;23.192;2023-05-29T11:46:24;92169.50;;;20.87;72.80
64602;BME280;68371;42.630;23.192;2023-05-29T11:48:51;92153.81;;;20.61;74.96
64602;BME280;68371;42.630;23.192;2023-05-29T11:51:18;92162.28;;;20.84;72.92
64602;BME280;68371;42.630;23.192;2023-05-29T11:53:47;92156.53;;;20.85;68.01
64602;BME280;68371;42.630;23.192;2023-05-29T11:56:15;92144.28;;;20.64;69.06
64602;BME280;68371;42.630;23.192;2023-05-29T11:58:42;92155.84;;;20.81;66.82
64602;BME280;68371;42.630;23.192;2023-05-29T12:01:09;92117.06;;;20.96;73.36
64602;BME280;68371;42.630;23.192;2023-05-29T12:03:40;92144.34;;;21.75;58.65
64602;BME280;68371;42.630;23.192;2023-05-29T12:06:08;92139.31;;;22.37;63.04
64602;BME280;68371;42.630;23.192;2023-05-29T12:08:35;92116.84;;;22.67;56.96
64602;BME280;68371;42.630;23.192;2023-05-29T12:11:02;92136.09;;;23.28;54.61
64602;BME280;68371;42.630;23.192;2023-05-29T12:13:35;92122.31;;;23.71;53.88
64602;BME280;68371;42.630;23.192;2023-05-29T12:16:03;92131.69;;;24.09;51.80
64602;BME280;68371;42.630;23.192;2023-05-29T12:18:31;92127.41;;;24.37;47.25
64602;BME280;68371;42.630;23.192;2023-05-29T12:21:00;92129.38;;;24.62;45.93
64602;BME280;68371;42.630;23.192;2023-05-29T12:23:28;92118.63;;;24.75;53.08
64602;BME280;68371;42.630;23.192;2023-05-29T12:25:55;92159.41;;;24.44;58.82
64602;BME280;68371;42.630;23.192;2023-05-29T12:28:22;92158.13;;;23.94;59.44
64602;BME280;68371;42.630;23.192;2023-05-29T12:30:50;92156.75;;;23.73;61.45
64602;BME280;68371;42.630;23.192;2023-05-29T12:33:28;92162.63;;;23.68;65.67
64602;BME280;68371;42.630;23.192;2023-05-29T12:36:01;92168.41;;;23.04;69.40
64602;BME280;68371;42.630;23.192;2023-05-29T12:38:28;92163.69;;;22.59;69.50
64602;BME280;68371;42.630;23.192;2023-05-29T12:40:55;92159.44;;;22.78;72.65
64602;BME280;68371;42.630;23.192;2023-05-29T12:43:22;92140.91;;;21.94;78.17
64602;BME280;68371;42.630;23.192;2023-05-29T12:45:55;92167.66;;;22.14;78.85
64602;BME280;68371;42.630;23.192;2023-05-29T12:48:26;92170.69;;;21.96;74.82
64602;BME280;68371;42.630;23.192;2023-05-29T12:50:53;92164.44;;;21.39;76.56
64602;BME280;68371;42.630;23.192;2023-05-29T12:53:20;92182.53;;;20.81;82.62